« Back
NWS Peachtree City, Ga » Text Product » CSG Terminal Aerodrome Forecast


Printer-friendly Version
Current Version              Previous Versions:   1  2  3  4  5  6  7  8  9  

Terminal Aerodrome Forecast

373
FTUS42 KFFC 192321
TAFCSG
TAF
KCSG 192321Z 2000/2024 34004KT P6SM VCSH SCT060 OVC100
     FM200230 01003KT 6SM -RA BR FEW025 OVC050
     FM200700 02003KT 5SM -RA BR OVC025
     FM201000 05004KT 4SM -RA BR OVC015
     FM201700 05006KT P6SM VCSH OVC025
     FM202200 03005KT P6SM BKN035=

USA.gov is the U.S. government's official web portal to all federal, state and local government web resources and services.